Погода Чернышинна неделю

Могилёвская область, Белоруссия

24 - 30 мая
  • 24мая
    Сегодня
    +10°
    +23°
    Ясно и безоблачно
    ВремяПогодаТемператураВлажностьДавлениеВетер, м/сВероятность осадков
    00:00Ясно и безоблачно+14°C53 %756 мм4.7 м/с2 %
    03:00Ясно и безоблачно+12°C55 %756 мм4.6 м/с2 %
    06:00Ясно и безоблачно+11°C57 %757 мм4.4 м/с2 %
    09:00Ясно и безоблачно+16°C53 %758 мм5.0 м/с2 %
    12:00Ясно и безоблачно+21°C44 %758 мм5.0 м/с2 %
    15:00Ясно и безоблачно+22°C38 %758 мм4.9 м/с2 %
    18:00Ясно и безоблачно+22°C38 %757 мм4.7 м/с2 %
    21:00Ясно и безоблачно+17°C52 %758 мм3.2 м/с2 %
  • 25мая
    Суббота
    +10°
    +24°
    Ясно и безоблачно
    ВремяПогодаТемператураВлажностьДавлениеВетер, м/сВероятность осадков
    00:00Ясно и безоблачно+13°C55 %757 мм3.7 м/с2 %
    03:00Ясно и безоблачно+11°C60 %757 мм3.5 м/с2 %
    06:00Ясно и безоблачно+11°C64 %757 мм3.1 м/с2 %
    09:00Ясно и безоблачно+17°C53 %757 мм3.1 м/с2 %
    12:00Ясно и безоблачно+22°C41 %757 мм3.1 м/с2 %
    15:00Ясно и безоблачно+23°C37 %757 мм3.1 м/с2 %
    18:00Ясно и безоблачно+23°C38 %756 мм2.8 м/с2 %
    21:00Ясно и безоблачно+18°C62 %755 мм2.2 м/с2 %
  • 26мая
    Воскресенье
    +12°
    +24°
    Практически безоблачно
    ВремяПогодаТемператураВлажностьДавлениеВетер, м/сВероятность осадков
    00:00Ясно и безоблачно+13°C62 %755 мм2.3 м/с2 %
    03:00Ясно и безоблачно+11°C69 %755 мм2.8 м/с2 %
    06:00Облачно с прояснениями+12°C75 %755 мм1.1 м/с2 %
    09:00Облачно с прояснениями+18°C55 %756 мм0.9 м/с2 %
    12:00Облачно с прояснениями+23°C38 %756 мм2.0 м/с2 %
    15:00Практически безоблачно+24°C38 %755 мм2.2 м/с2 %
    18:00Ясно и безоблачно+24°C34 %754 мм2.3 м/с2 %
    21:00Ясно и безоблачно+19°C59 %754 мм1.6 м/с2 %
  • 27мая
    Понедельник
    +13°
    +26°
    Практически безоблачно
    ВремяПогодаТемператураВлажностьДавлениеВетер, м/сВероятность осадков
    00:00Ясно и безоблачно+14°C76 %754 мм2.7 м/с2 %
    03:00Ясно и безоблачно+12°C80 %754 мм2.4 м/с2 %
    06:00Ясно и безоблачно+13°C81 %755 мм0.6 м/с2 %
    09:00Ясно и безоблачно+20°C55 %755 мм0.4 м/с2 %
    12:00Практически безоблачно+25°C39 %755 мм2.6 м/с2 %
    15:00Практически безоблачно+25°C38 %754 мм2.7 м/с9 %
    18:00Практически безоблачно+24°C40 %754 мм2.5 м/с17 %
    21:00Ясно и безоблачно+20°C62 %754 мм2.4 м/с4 %
  • 28мая
    Вторник
    +14°
    +25°
    Практически безоблачно
    ВремяПогодаТемператураВлажностьДавлениеВетер, м/сВероятность осадков
    00:00Ясно и безоблачно+16°C75 %754 мм2.3 м/с2 %
    03:00Ясно и безоблачно+14°C79 %754 мм2.3 м/с2 %
    06:00Ясно и безоблачно+14°C83 %754 мм2.2 м/с2 %
    09:00Ясно и безоблачно+20°C65 %754 мм2.3 м/с2 %
    12:00Практически безоблачно+24°C48 %753 мм3.0 м/с3 %
    15:00Практически безоблачно+24°C47 %753 мм2.7 м/с4 %
    18:00Практически безоблачно+24°C46 %752 мм2.9 м/с7 %
    21:00Ясно и безоблачно+20°C67 %752 мм2.4 м/с2 %
Мы используем cookies
Соглашаюсь